| time (UTC) | temp F | wind direction | speed MPH | gust MPH | rain 1hr in | rain 24hr in | rain mn in | humidity % | barometer mb |
| 20260507083357 | 68 | 160 | 3.0 | 0.0 | 0.00 | 0.00 | 0.00 | 53 | 1015.0 |
| 20260507081857 | 68 | 160 | 3.0 | 0.0 | 0.00 | 0.00 | 0.00 | 53 | 1015.0 |
| 20260507080357 | 68 | 160 | 3.0 | 0.0 | 0.00 | 0.00 | 0.00 | 53 | 1015.0 |
| 20260507074857 | 66 | 180 | 3.0 | 0.0 | 0.00 | 0.00 | 0.00 | 56 | 1015.0 |
| 20260507073356 | 66 | 180 | 3.0 | 0.0 | 0.00 | 0.00 | 0.00 | 56 | 1015.0 |
| 20260507071857 | 66 | 180 | 3.0 | 0.0 | 0.00 | 0.00 | 0.00 | 56 | 1015.0 |
| 20260507070356 | 66 | 180 | 3.0 | 0.0 | 0.00 | 0.00 | 0.00 | 56 | 1015.0 |
| 20260507064856 | 59 | 180 | 2.0 | 0.0 | 0.00 | 0.00 | 0.00 | 68 | 1015.0 |
| 20260507063357 | 59 | 180 | 2.0 | 0.0 | 0.00 | 0.00 | 0.00 | 68 | 1015.0 |
| 20260507061906 | 59 | 180 | 2.0 | 0.0 | 0.00 | 0.00 | 0.00 | 68 | 1015.0 |
| 20260507060357 | 59 | 180 | 2.0 | 0.0 | 0.00 | 0.00 | 0.00 | 68 | 1015.0 |
| 20260507054856 | 57 | 190 | 2.0 | 0.0 | 0.00 | 0.00 | 0.00 | 67 | 1014.0 |
| 20260507053404 | 57 | 190 | 2.0 | 0.0 | 0.00 | 0.00 | 0.00 | 67 | 1014.0 |
| 20260507051857 | 57 | 190 | 2.0 | 0.0 | 0.00 | 0.00 | 0.00 | 67 | 1014.0 |
| 20260507050356 | 0 | 0.0 | 0.0 | 0.00 | 0.00 | 0.00 | |||
| 20260507044850 | 48 | 350 | 2.0 | 0.0 | 0.00 | 0.00 | 0.00 | 87 | 1014.0 |
| 20260507043356 | 48 | 350 | 2.0 | 0.0 | 0.00 | 0.00 | 0.00 | 87 | 1014.0 |
| 20260507041857 | 48 | 350 | 2.0 | 0.0 | 0.00 | 0.00 | 0.00 | 87 | 1014.0 |
| 20260507040356 | 48 | 350 | 2.0 | 0.0 | 0.00 | 0.00 | 0.00 | 87 | 1014.0 |
| 20260507034853 | 52 | 70 | 2.0 | 0.0 | 0.00 | 0.00 | 0.00 | 72 | 1014.0 |
| 20260507033356 | 52 | 70 | 2.0 | 0.0 | 0.00 | 0.00 | 0.00 | 72 | 1014.0 |
| 20260507031853 | 52 | 70 | 2.0 | 0.0 | 0.00 | 0.00 | 0.00 | 72 | 1014.0 |
| 20260507030356 | 52 | 70 | 2.0 | 0.0 | 0.00 | 0.00 | 0.00 | 72 | 1014.0 |
| 20260507024853 | 46 | 300 | 8.0 | 0.0 | 0.00 | 0.00 | 0.00 | 100 | 1013.0 |
| 20260507023356 | 46 | 300 | 8.0 | 0.0 | 0.00 | 0.00 | 0.00 | 100 | 1013.0 |
| 20260507021857 | 0 | 0.0 | 0.0 | 0.00 | 0.00 | 0.00 | |||
| 20260507020356 | 0 | 0.0 | 0.0 | 0.00 | 0.00 | 0.00 | |||
| 20260507014856 | 48 | 300 | 8.0 | 0.0 | 0.00 | 0.00 | 0.00 | 94 | 1013.0 |
| 20260507013356 | 48 | 300 | 8.0 | 0.0 | 0.00 | 0.00 | 0.00 | 94 | 1013.0 |
| 20260507011856 | 48 | 300 | 8.0 | 0.0 | 0.00 | 0.00 | 0.00 | 94 | 1013.0 |
| 20260507010357 | 48 | 300 | 8.0 | 0.0 | 0.00 | 0.00 | 0.00 | 94 | 1013.0 |
| 20260507004856 | 48 | 300 | 8.0 | 0.0 | 0.00 | 0.00 | 0.00 | 94 | 1013.0 |
| 20260507003357 | 50 | 300 | 8.0 | 0.0 | 0.00 | 0.00 | 0.00 | 88 | 1013.0 |
| 20260507001856 | 50 | 300 | 8.0 | 0.0 | 0.00 | 0.00 | 0.00 | 88 | 1013.0 |
| 20260507000357 | 50 | 300 | 8.0 | 0.0 | 0.00 | 0.00 | 0.00 | 88 | 1013.0 |
| 20260506234856 | 55 | 230 | 7.0 | 0.0 | 0.00 | 0.00 | 0.00 | 82 | 1013.0 |
| 20260506233356 | 55 | 230 | 7.0 | 0.0 | 0.00 | 0.00 | 0.00 | 82 | 1013.0 |
| 20260506231854 | 55 | 230 | 7.0 | 0.0 | 0.00 | 0.00 | 0.00 | 82 | 1013.0 |
| 20260506230356 | 55 | 230 | 7.0 | 0.0 | 0.00 | 0.00 | 0.00 | 82 | 1013.0 |
| 20260506224853 | 57 | 300 | 8.0 | 0.0 | 0.00 | 0.00 | 0.00 | 67 | 1013.0 |
| 20260506223356 | 57 | 300 | 8.0 | 0.0 | 0.00 | 0.00 | 0.00 | 67 | 1013.0 |
| 20260506221856 | 57 | 300 | 8.0 | 0.0 | 0.00 | 0.00 | 0.00 | 67 | 1013.0 |
| 20260506220356 | 0 | 0.0 | 0.0 | 0.00 | 0.00 | 0.00 | |||
| 20260506214909 | 59 | 300 | 8.0 | 0.0 | 0.00 | 0.00 | 0.00 | 63 | 1013.0 |
| 20260506213357 | 59 | 300 | 8.0 | 0.0 | 0.00 | 0.00 | 0.00 | 63 | 1013.0 |
| 20260506211850 | 59 | 300 | 8.0 | 0.0 | 0.00 | 0.00 | 0.00 | 63 | 1013.0 |
| 20260506210356 | 59 | 300 | 8.0 | 0.0 | 0.00 | 0.00 | 0.00 | 63 | 1013.0 |
| 20260506204857 | 63 | 300 | 8.0 | 0.0 | 0.00 | 0.00 | 0.00 | 56 | 1012.0 |
| 20260506203356 | 63 | 300 | 8.0 | 0.0 | 0.00 | 0.00 | 0.00 | 56 | 1012.0 |
| 20260506201850 | 63 | 300 | 8.0 | 0.0 | 0.00 | 0.00 | 0.00 | 56 | 1012.0 |
| 20260506200356 | 63 | 300 | 8.0 | 0.0 | 0.00 | 0.00 | 0.00 | 56 | 1012.0 |
| 20260506194912 | 68 | 300 | 6.0 | 0.0 | 0.00 | 0.00 | 0.00 | 43 | 1012.0 |
| 20260506193420 | 68 | 300 | 6.0 | 0.0 | 0.00 | 0.00 | 0.00 | 43 | 1012.0 |
| 20260506191857 | 68 | 300 | 6.0 | 0.0 | 0.00 | 0.00 | 0.00 | 43 | 1012.0 |
| 20260506190357 | 68 | 300 | 6.0 | 0.0 | 0.00 | 0.00 | 0.00 | 43 | 1012.0 |
| 20260506184859 | 68 | 180 | 7.0 | 0.0 | 0.00 | 0.00 | 0.00 | 46 | 1011.0 |
| 20260506183356 | 68 | 180 | 7.0 | 0.0 | 0.00 | 0.00 | 0.00 | 46 | 1011.0 |
| 20260506181857 | 68 | 180 | 7.0 | 0.0 | 0.00 | 0.00 | 0.00 | 46 | 1011.0 |
| 20260506180357 | 0 | 0.0 | 0.0 | 0.00 | 0.00 | 0.00 | |||
| 20260506174857 | 73 | 230 | 7.0 | 0.0 | 0.00 | 0.00 | 0.00 | 38 | 1011.0 |
| 20260506173356 | 73 | 230 | 7.0 | 0.0 | 0.00 | 0.00 | 0.00 | 38 | 1011.0 |
| 20260506171857 | 73 | 230 | 7.0 | 0.0 | 0.00 | 0.00 | 0.00 | 38 | 1011.0 |
| 20260506170356 | 73 | 230 | 7.0 | 0.0 | 0.00 | 0.00 | 0.00 | 38 | 1011.0 |
| 20260506164856 | 79 | 210 | 7.0 | 0.0 | 0.00 | 0.00 | 0.00 | 30 | 1011.0 |
| 20260506163356 | 79 | 210 | 7.0 | 0.0 | 0.00 | 0.00 | 0.00 | 30 | 1011.0 |
| 20260506161857 | 79 | 210 | 7.0 | 0.0 | 0.00 | 0.00 | 0.00 | 30 | 1011.0 |
| 20260506160356 | 79 | 210 | 7.0 | 0.0 | 0.00 | 0.00 | 0.00 | 30 | 1011.0 |
| 20260506154857 | 81 | 180 | 8.0 | 0.0 | 0.00 | 0.00 | 0.00 | 23 | 1011.0 |
| 20260506153356 | 81 | 180 | 8.0 | 0.0 | 0.00 | 0.00 | 0.00 | 23 | 1011.0 |
| 20260506151856 | 81 | 180 | 8.0 | 0.0 | 0.00 | 0.00 | 0.00 | 23 | 1011.0 |
| 20260506150402 | 81 | 180 | 8.0 | 0.0 | 0.00 | 0.00 | 0.00 | 23 | 1011.0 |
| 20260506144856 | 81 | 190 | 6.0 | 0.0 | 0.00 | 0.00 | 0.00 | 23 | 1011.0 |
| 20260506143408 | 81 | 190 | 6.0 | 0.0 | 0.00 | 0.00 | 0.00 | 23 | 1011.0 |
| 20260506141856 | 81 | 190 | 6.0 | 0.0 | 0.00 | 0.00 | 0.00 | 23 | 1011.0 |
| 20260506140519 | 0 | 0.0 | 0.0 | 0.00 | 0.00 | 0.00 | |||
| 20260506134922 | 81 | 170 | 10.0 | 0.0 | 0.00 | 0.00 | 0.00 | 26 | 1012.0 |
| 20260506133356 | 81 | 170 | 10.0 | 0.0 | 0.00 | 0.00 | 0.00 | 26 | 1012.0 |
| 20260506131853 | 81 | 170 | 10.0 | 0.0 | 0.00 | 0.00 | 0.00 | 26 | 1012.0 |
| 20260506130405 | 81 | 170 | 10.0 | 0.0 | 0.00 | 0.00 | 0.00 | 26 | 1012.0 |
| 20260506124857 | 81 | 160 | 14.0 | 0.0 | 0.00 | 0.00 | 0.00 | 24 | 1012.0 |
| 20260506123356 | 81 | 160 | 14.0 | 0.0 | 0.00 | 0.00 | 0.00 | 24 | 1012.0 |
| 20260506121857 | 81 | 160 | 14.0 | 0.0 | 0.00 | 0.00 | 0.00 | 24 | 1012.0 |
| 20260506120356 | 81 | 160 | 14.0 | 0.0 | 0.00 | 0.00 | 0.00 | 24 | 1012.0 |
| 20260506114856 | 79 | 150 | 10.0 | 0.0 | 0.00 | 0.00 | 0.00 | 28 | 1013.0 |
| 20260506113357 | 79 | 150 | 10.0 | 0.0 | 0.00 | 0.00 | 0.00 | 28 | 1013.0 |
| 20260506111856 | 79 | 150 | 10.0 | 0.0 | 0.00 | 0.00 | 0.00 | 28 | 1013.0 |
| 20260506110356 | 79 | 150 | 10.0 | 0.0 | 0.00 | 0.00 | 0.00 | 28 | 1013.0 |
| 20260506104856 | 75 | 150 | 6.0 | 0.0 | 0.00 | 0.00 | 0.00 | 34 | 1014.0 |
| 20260506103357 | 75 | 150 | 6.0 | 0.0 | 0.00 | 0.00 | 0.00 | 34 | 1014.0 |
| 20260506101857 | 75 | 150 | 6.0 | 0.0 | 0.00 | 0.00 | 0.00 | 34 | 1014.0 |
| 20260506100357 | 75 | 150 | 6.0 | 0.0 | 0.00 | 0.00 | 0.00 | 34 | 1014.0 |
| 20260506094857 | 72 | 220 | 6.0 | 0.0 | 0.00 | 0.00 | 0.00 | 41 | 1014.0 |
| 20260506093356 | 72 | 220 | 6.0 | 0.0 | 0.00 | 0.00 | 0.00 | 41 | 1014.0 |
| 20260506091856 | 72 | 220 | 6.0 | 0.0 | 0.00 | 0.00 | 0.00 | 41 | 1014.0 |
| 20260506090356 | 72 | 220 | 6.0 | 0.0 | 0.00 | 0.00 | 0.00 | 41 | 1014.0 |
| 20260506084857 | 68 | 3.0 | 0.0 | 0.00 | 0.00 | 0.00 | 46 | 1014.0 |